Latest Weather Observations for Oodnadatta

IDS60801

Issued at 9:05 pm CDT Saturday 1 November 2014 (issued every 30 minutes, with the page automatically refreshed every 10 minutes)

About weather observations | Map of weather stations | Latest weather observations for SA | Other Formats
Station Details ID: 017043 Name: OODNADATTA AIRPORT Lat: -27.56 Lon: 135.45 Height: 116.5 m
Data from the previous 72 hours. | See also: Recent months at Oodnadatta
Date/Time
CDT
Temp
°C
App
Temp
°C
Dew
Point
Rel
Hum
%
Delta-T
°C
Wind Press
QNH
hPa
Press
MSL
hPa
Rain
since 9 am
mm
Dir
 
Spd
km/h
Gust
km/h
Spd
kts
Gust
kts
01/09:00pm 24.2 18.0 -0.2 20 11.2 S 22 28 12 15 1017.4 1016.8 0.0
01/08:30pm 25.0 18.0 -0.2 19 11.6 S 26 30 14 16 1017.0 - 0.0
01/08:00pm 25.6 18.3 0.3 19 11.8 SSE 28 37 15 20 1016.7 - 0.0
01/07:30pm 26.2 18.6 0.8 19 12.0 S 30 37 16 20 1016.3 - 0.0
01/07:00pm 26.9 20.2 1.3 19 12.3 SSE 26 35 14 19 1016.1 - 0.0
01/06:30pm 27.8 20.4 2.1 19 12.6 S 30 39 16 21 1015.7 - 0.0
01/06:00pm 27.8 20.9 2.8 20 12.4 SSE 28 37 15 20 1015.4 1014.8 0.0
01/05:30pm 27.7 20.7 4.1 22 12.0 S 30 39 16 21 1015.2 - 0.0
01/05:00pm 27.9 21.8 4.9 23 11.9 S 26 33 14 18 1015.2 - 0.0
01/04:30pm 27.7 21.3 5.3 24 11.6 S 28 43 15 23 1015.2 - 0.0
01/04:00pm 27.8 21.7 6.6 26 11.2 S 28 41 15 22 1015.0 - 0.0
01/03:30pm 27.3 21.0 7.2 28 10.7 S 30 44 16 24 1015.2 - 0.0
01/03:00pm 27.4 20.9 8.3 30 10.4 S 32 44 17 24 1015.6 1015.0 0.0
01/02:45pm 26.8 20.7 8.3 31 10.1 S 30 48 16 26 1015.8 - 0.0
01/02:30pm 27.0 21.4 8.9 32 9.9 S 28 41 15 22 1016.0 - 0.0
01/02:00pm 25.6 20.1 9.0 35 9.1 S 28 43 15 23 1016.6 - 0.0
01/01:30pm 25.1 20.2 9.8 38 8.5 S 26 41 14 22 1017.0 - 0.0
01/01:11pm 24.7 19.3 9.4 38 8.4 S 28 52 15 28 1017.1 - 0.0
01/01:00pm 23.8 18.8 10.8 44 7.3 S 28 43 15 23 1017.5 - 0.0
01/12:30pm 23.2 18.3 11.3 47 6.7 S 28 52 15 28 1017.7 - 0.0
01/12:29pm 22.9 17.9 11.0 47 6.6 S 28 52 15 28 1017.8 - 0.0
01/12:00pm 22.6 16.8 10.7 47 6.6 S 32 39 17 21 1018.1 1017.6 0.0
01/11:30am 21.7 16.0 11.1 51 5.9 S 32 43 17 23 1018.3 - 0.0
01/11:00am 21.6 16.6 11.0 51 5.9 S 28 39 15 21 1018.7 - 0.0
01/10:30am 20.7 16.6 11.3 55 5.2 S 24 41 13 22 1018.9 - 0.0
01/10:00am 20.2 11.8 11.1 56 5.0 S 46 59 25 32 1017.5 - 0.0
01/09:30am 19.7 11.0 11.2 58 4.7 S 48 63 26 34 1016.9 - 0.0
01/09:02am 19.3 10.6 11.3 60 4.4 S 48 67 26 36 1016.2 - 0.0
01/09:00am 18.9 9.8 11.2 61 4.2 S 50 67 27 36 1016.1 1015.5 0.4
01/08:30am 18.1 8.2 11.2 64 3.8 S 54 67 29 36 1015.1 - 0.4
01/08:00am 17.6 8.1 11.2 66 3.5 S 52 69 28 37 1014.5 - 0.4
01/07:57am 17.4 8.2 11.0 66 3.5 S 50 69 27 37 1014.3 - 0.4
01/07:30am 17.5 8.9 11.5 68 3.3 S 48 65 26 35 1014.4 - 0.4
01/07:04am 18.1 10.1 12.5 70 3.1 SSW 46 65 25 35 1013.4 - 0.4
01/07:00am 18.1 9.8 12.5 70 3.1 SSW 48 65 26 35 1013.1 - 0.4
01/06:30am 18.8 11.6 13.2 70 3.2 SSW 43 57 23 31 1012.0 - 0.4
01/06:00am 19.4 12.0 13.1 67 3.6 S 44 57 24 31 1011.0 1010.4 0.4
01/05:30am 19.9 13.2 13.4 66 3.7 S 41 54 22 29 1010.2 - 0.4
01/05:00am 20.2 12.8 14.1 68 3.5 SSW 46 59 25 32 1009.7 - 0.4
01/04:52am 20.4 13.9 14.1 67 3.7 SSW 41 59 22 32 1009.5 - 0.4
01/04:30am 20.9 14.3 14.8 68 3.6 S 43 56 23 30 1009.3 - 0.4
01/04:00am 21.3 14.7 15.4 69 3.5 SSW 44 61 24 33 1008.9 - 0.4
01/03:46am 21.9 16.5 16.0 69 3.6 S 39 57 21 31 1009.1 - 0.4
01/03:30am 22.5 17.9 17.2 72 3.3 SSW 37 48 20 26 1009.3 - 0.4
01/03:00am 21.5 18.8 18.5 83 1.9 SW 30 46 16 25 1009.8 1009.2 0.4
01/02:54am 21.5 17.3 18.1 81 2.1 WSW 37 48 20 26 1010.3 - 0.2
01/02:30am 24.2 18.0 16.5 62 4.7 W 44 61 24 33 1010.7 - 0.0
01/02:00am 24.9 17.1 15.2 54 5.9 W 50 70 27 38 1010.5 - 0.0
01/01:30am 25.0 16.3 15.9 57 5.6 WNW 56 76 30 41 1010.7 - 0.0
01/01:29am 25.0 16.1 15.9 57 5.6 WNW 57 76 31 41 1010.7 - 0.0
01/01:27am 25.5 15.3 15.5 54 6.1 WNW 63 76 34 41 1010.6 - 0.0
01/01:25am 26.5 22.4 14.9 49 7.0 WNW 30 59 16 32 1010.9 - 0.0
01/01:17am 26.6 23.1 12.3 41 8.3 W 22 30 12 16 1010.0 - 0.0
01/01:00am 26.8 25.8 12.4 40 8.4 SSE 9 11 5 6 1007.9 - 0.0
01/12:30am 26.9 26.0 12.5 40 8.4 SE 9 11 5 6 1007.5 - 0.0
01/12:00am 27.0 25.3 12.3 40 8.6 S 13 19 7 10 1007.9 1007.3 0.0
 
Date/Time
CDT
Temp
°C
App
Temp
°C
Dew
Point
Rel
Hum
%
Delta-T
°C
Wind Press
QNH
hPa
Press
MSL
hPa
Rain
since 9 am
mm
Dir
 
Spd
km/h
Gust
km/h
Spd
kts
Gust
kts
31/11:30pm 26.9 23.6 12.9 42 8.2 SSW 22 32 12 17 1008.7 - 0.0
31/11:00pm 27.0 21.9 13.7 44 7.9 SSW 33 46 18 25 1008.7 - 0.0
31/10:30pm 27.1 20.1 13.8 44 7.9 SSW 43 57 23 31 1009.0 - 0.0
31/10:00pm 27.6 19.6 13.5 41 8.4 SSW 48 59 26 32 1009.0 - 0.0
31/09:30pm 28.2 18.0 13.3 40 8.9 SSW 59 83 32 45 1008.0 - 0.0
31/09:17pm 29.8 19.7 11.8 33 10.5 SSW 56 74 30 40 1007.4 - 0.0
31/09:15pm 31.4 25.6 9.6 26 12.4 SW 30 65 16 35 1007.3 - 0.0
31/09:00pm 31.8 27.9 8.7 24 13.0 NNW 19 26 10 14 1005.1 1004.6 0.0
31/08:30pm 32.0 27.2 8.9 24 13.0 NNW 24 32 13 17 1004.4 - 0.0
31/08:00pm 32.3 25.9 9.2 24 13.1 NNW 33 41 18 22 1004.2 - 0.0
31/07:30pm 33.0 24.3 8.5 22 13.8 NNW 44 57 24 31 1003.2 - 0.0
31/07:00pm 33.7 24.6 8.3 21 14.3 NNW 46 59 25 32 1002.8 - 0.0
31/06:46pm 32.9 22.4 9.0 23 13.5 NNW 54 72 29 39 1002.3 - 0.0
31/06:30pm 32.2 20.6 9.7 25 12.8 NW 61 76 33 41 1002.9 - 0.0
31/06:14pm 32.9 22.8 10.3 25 13.1 WNW 54 76 29 41 1003.2 - 0.0
31/06:00pm 33.0 22.7 10.9 26 12.9 WNW 56 72 30 39 1003.7 1003.2 0.0
31/05:40pm 34.5 22.1 11.0 24 13.8 WNW 67 85 36 46 1003.1 - 0.0
31/05:34pm 35.3 22.4 10.4 22 14.6 WNW 69 82 37 44 1003.0 - 0.0
31/05:32pm 36.6 27.3 7.6 17 16.4 W 46 80 25 43 1003.1 - 0.0
31/05:30pm 36.9 27.4 5.0 14 17.3 W 44 59 24 32 1003.1 - 0.0
31/05:21pm 37.5 29.6 4.4 13 17.9 WNW 35 54 19 29 1003.0 - 0.0
31/05:00pm 37.9 29.3 2.4 11 18.6 W 37 50 20 27 1002.9 - 0.0
31/04:38pm 38.0 29.4 4.8 13 18.1 W 39 57 21 31 1003.0 - 0.0
31/04:30pm 38.1 30.4 7.0 15 17.5 W 37 54 20 29 1003.0 - 0.0
31/04:25pm 39.4 32.4 7.0 14 18.3 W 33 54 18 29 1003.0 - 0.0
31/04:13pm 39.2 30.1 5.7 13 18.6 WNW 43 52 23 28 1003.0 - 0.0
31/04:00pm 39.2 31.1 6.8 14 18.3 W 39 46 21 25 1003.1 - 0.0
31/03:56pm 39.5 31.4 7.1 14 18.4 WSW 39 50 21 27 1003.1 - 0.0
31/03:38pm 39.2 31.6 5.7 13 18.6 W 35 54 19 29 1003.4 - 0.0
31/03:30pm 39.3 31.6 6.9 14 18.3 W 37 54 20 29 1003.4 - 0.0
31/03:23pm 40.3 32.9 6.6 13 19.1 W 35 54 19 29 1003.3 - 0.0
31/03:00pm 38.9 31.5 6.6 14 18.2 W 35 50 19 27 1003.7 1003.2 0.0
31/02:30pm 39.0 30.4 6.7 14 18.2 W 41 59 22 32 1004.4 - 0.0
31/02:04pm 39.4 32.3 8.0 15 18.0 WNW 35 54 19 29 1004.9 - 0.0
31/02:00pm 39.1 31.5 7.7 15 17.9 WNW 37 54 20 29 1005.0 - 0.0
31/01:30pm 38.3 30.2 7.1 15 17.6 NW 39 57 21 31 1005.3 - 0.0
31/01:00pm 38.4 31.1 7.2 15 17.6 WNW 35 48 19 26 1006.1 - 0.0
31/12:41pm 37.3 30.4 7.3 16 16.9 NW 33 56 18 30 1006.5 - 0.0
31/12:30pm 36.6 29.6 6.7 16 16.6 NW 33 50 18 27 1006.6 - 0.0
31/12:00pm 36.4 28.5 4.6 14 17.2 NW 35 52 19 28 1007.0 1006.5 0.0
31/11:30am 36.5 28.5 3.7 13 17.4 NNW 35 54 19 29 1007.4 - 0.0
31/11:06am 35.5 29.6 7.5 18 15.7 NNW 28 50 15 27 1007.9 - 0.0
31/11:00am 34.6 29.7 8.4 20 14.8 NNW 24 39 13 21 1008.0 - 0.0
31/10:30am 33.1 29.1 9.2 23 13.6 NNW 20 32 11 17 1008.2 - 0.0
31/10:00am 31.7 28.7 9.3 25 12.7 N 15 20 8 11 1008.2 - 0.0
31/09:30am 30.3 27.1 9.8 28 11.6 NNW 17 22 9 12 1008.9 - 0.0
31/09:00am 30.0 27.7 10.5 30 11.2 N 13 17 7 9 1008.8 1008.3 0.0
31/08:30am 27.3 25.9 10.9 36 9.3 NE 9 11 5 6 1008.6 - 0.0
31/08:00am 25.8 24.6 11.6 41 8.1 N 9 13 5 7 1008.5 - 0.0
31/07:30am 25.2 23.0 12.1 44 7.5 NW 15 19 8 10 1008.2 - 0.0
31/07:00am 23.2 21.1 11.3 47 6.7 NNW 13 15 7 8 1007.8 - 0.0
31/06:30am 24.1 22.2 11.8 46 7.0 NW 13 20 7 11 1006.8 - 0.0
31/06:00am 25.1 22.0 11.6 42 7.7 N 19 22 10 12 1006.1 1005.6 0.0
31/05:30am 24.3 22.7 11.6 45 7.2 N 11 15 6 8 1007.0 - 0.0
31/05:00am 24.1 22.2 11.8 46 7.0 NNW 13 15 7 8 1007.7 - 0.0
31/04:30am 23.6 21.3 11.6 47 6.8 N 15 17 8 9 1008.1 - 0.0
31/04:00am 23.5 21.0 11.2 46 6.9 NNW 15 17 8 9 1008.2 - 0.0
31/03:30am 23.7 20.5 11.4 46 6.9 NNW 19 24 10 13 1008.4 - 0.0
31/03:00am 24.1 22.5 11.4 45 7.2 NNW 11 13 6 7 1008.5 1008.0 0.0
31/02:30am 24.9 25.2 12.2 45 7.3 SSW 2 7 1 4 1008.5 - 0.0
31/02:00am 25.3 23.5 12.2 44 7.5 SSW 13 15 7 8 1009.3 - 0.0
31/01:30am 26.0 22.6 11.4 40 8.3 WSW 20 28 11 15 1010.7 - 0.0
31/01:00am 26.4 24.6 10.9 38 8.8 W 11 22 6 12 1011.4 - 0.0
31/12:55am 26.5 24.2 10.6 37 9.0 W 13 26 7 14 1011.0 - 0.0
31/12:30am 26.6 19.9 11.1 38 8.8 WSW 37 50 20 27 1012.3 - 0.0
31/12:12am 28.1 21.3 6.8 26 11.4 WSW 32 52 17 28 1012.3 - 0.0
31/12:10am 27.9 21.2 5.5 24 11.7 WSW 30 33 16 18 1012.3 - 0.0
31/12:00am 28.0 25.4 3.0 20 12.5 WSW 6 9 3 5 1011.1 1010.6 0.0
 
Date/Time
CDT
Temp
°C
App
Temp
°C
Dew
Point
Rel
Hum
%
Delta-T
°C
Wind Press
QNH
hPa
Press
MSL
hPa
Rain
since 9 am
mm
Dir
 
Spd
km/h
Gust
km/h
Spd
kts
Gust
kts
30/11:30pm 28.4 27.1 4.0 21 12.4 CALM 0 0 0 0 1011.4 - 0.0
30/11:00pm 28.7 26.0 3.5 20 12.7 W 7 7 4 4 1011.2 - 0.0
30/10:30pm 28.9 26.2 3.7 20 12.8 WNW 7 9 4 5 1011.2 - 0.0
30/10:00pm 29.1 25.8 2.4 18 13.3 NW 9 11 5 6 1010.7 - 0.0
30/09:30pm 30.0 27.0 3.9 19 13.4 NNW 9 9 5 5 1010.3 - 0.0
30/09:00pm 30.6 27.5 3.6 18 13.9 NW 9 11 5 6 1010.3 1009.9 0.0
30/08:30pm 31.1 26.9 4.0 18 14.0 NNW 15 19 8 10 1010.2 - 0.0
30/08:00pm 31.6 27.6 2.7 16 14.7 NW 13 17 7 9 1009.9 - 0.0
30/07:30pm 32.1 27.8 3.1 16 14.9 NW 15 17 8 9 1009.8 - 0.0
30/07:00pm 32.7 26.8 1.7 14 15.6 NW 22 28 12 15 1010.0 - 0.0
30/06:30pm 33.1 26.5 -0.1 12 16.2 NW 24 30 13 16 1010.3 - 0.0
30/06:00pm 34.0 27.2 -1.9 10 17.2 NW 24 33 13 18 1010.1 1009.6 0.0
30/05:30pm 33.9 26.5 -3.4 9 17.4 NW 26 32 14 17 1010.3 - 0.0
30/05:00pm 34.4 25.7 -3.0 9 17.6 NW 33 43 18 23 1010.4 - 0.0
30/04:30pm 34.8 26.8 -2.7 9 17.8 NW 30 44 16 24 1010.4 - 0.0
30/04:00pm 34.8 27.1 -2.7 9 17.8 NW 28 37 15 20 1010.6 - 0.0
30/03:30pm 36.2 29.6 -3.3 8 18.7 WNW 22 30 12 16 1010.7 - 0.0
30/03:00pm 36.2 28.8 -3.3 8 18.8 NNW 26 35 14 19 1011.1 1010.6 0.0
30/02:46pm 36.7 29.0 -2.9 8 19.0 NW 28 33 15 18 1011.2 - 0.0
30/02:30pm 36.1 32.0 -3.3 8 18.7 N 9 15 5 8 1011.6 - 0.0
30/02:00pm 35.8 30.9 -3.5 8 18.5 N 13 20 7 11 1011.9 - 0.0
30/01:30pm 34.4 29.2 -3.0 9 17.6 N 15 24 8 13 1012.3 - 0.0
30/01:00pm 34.3 29.1 -3.1 9 17.6 N 15 26 8 14 1012.7 - 0.0
30/12:30pm 34.3 28.7 -3.1 9 17.6 NNE 17 24 9 13 1013.2 - 0.0
30/12:00pm 33.6 27.5 -3.6 9 17.2 N 19 24 10 13 1013.7 1013.2 0.0
30/11:30am 33.9 27.9 -3.4 9 17.4 NNE 19 28 10 15 1014.1 - 0.0
30/11:00am 33.4 26.8 -3.7 9 17.1 NNE 22 30 12 16 1014.4 - 0.0
30/10:30am 32.3 26.1 -3.2 10 16.4 NNE 20 28 11 15 1014.4 - 0.0
30/10:00am 31.8 25.3 -2.3 11 15.9 NE 22 30 12 16 1014.3 - 0.0
30/09:30am 31.6 25.5 -2.4 11 15.8 NE 20 28 11 15 1014.4 - 0.0
30/09:00am 29.3 24.4 -3.0 12 14.6 NE 13 19 7 10 1014.4 1013.9 0.0
30/08:30am 24.8 22.3 -3.6 15 12.3 CALM 0 0 0 0 1014.3 - 0.0
30/08:00am 21.6 19.0 -4.5 17 10.8 CALM 0 0 0 0 1014.1 - 0.0
30/07:30am 19.9 17.3 -5.1 18 10.0 CALM 0 0 0 0 1014.0 - 0.0
30/07:00am 18.9 14.9 -5.2 19 9.5 S 7 9 4 5 1013.7 - 0.0
30/06:30am 18.8 14.8 -5.3 19 9.5 S 7 9 4 5 1013.2 - 0.0
30/06:00am 18.9 16.3 -5.2 19 9.5 CALM 0 0 0 0 1012.9 1012.4 0.0
30/05:30am 19.0 16.4 -5.1 19 9.6 CALM 0 0 0 0 1012.5 - 0.0
30/05:00am 19.5 15.6 -6.2 17 10.0 ENE 6 7 3 4 1012.4 - 0.0
30/04:30am 20.3 16.5 -5.5 17 10.3 ENE 6 7 3 4 1012.5 - 0.0
30/04:00am 21.1 15.9 -5.7 16 10.7 ENE 13 13 7 7 1012.5 - 0.0
30/03:30am 20.5 16.5 -5.4 17 10.4 ESE 7 9 4 5 1012.8 - 0.0
30/03:00am 21.8 18.0 -5.1 16 11.0 ENE 6 7 3 4 1013.0 1012.5 0.0
30/02:30am 21.8 18.0 -5.1 16 11.0 ENE 6 11 3 6 1013.1 - 0.0
30/02:00am 22.9 17.1 -5.1 15 11.5 NE 17 17 9 9 1013.4 - 0.0
30/01:30am 22.8 17.3 -5.2 15 11.5 ENE 15 17 8 9 1013.6 - 0.0
30/01:00am 23.7 18.2 -5.3 14 12.0 ENE 15 17 8 9 1013.7 - 0.0
30/12:30am 24.6 18.7 -5.6 13 12.5 E 17 19 9 10 1014.0 - 0.0
30/12:00am 25.4 19.5 -6.0 12 13.0 E 17 19 9 10 1014.2 1013.7 0.0
 
Date/Time
CDT
Temp
°C
App
Temp
°C
Dew
Point
Rel
Hum
%
Delta-T
°C
Wind Press
QNH
hPa
Press
MSL
hPa
Rain
since 9 am
mm
Dir
 
Spd
km/h
Gust
km/h
Spd
kts
Gust
kts
29/11:30pm 25.3 19.4 -6.1 12 13.0 E 17 19 9 10 1014.2 - 0.0
29/11:00pm 25.7 19.8 -5.8 12 13.2 E 17 19 9 10 1014.5 - 0.0
29/10:30pm 26.0 20.5 -5.6 12 13.3 ESE 15 17 8 9 1014.7 - 0.0
29/10:00pm 27.2 22.0 -5.8 11 14.0 ESE 13 13 7 7 1014.6 - 0.0
29/09:30pm 28.1 23.4 -5.1 11 14.3 ESE 11 15 6 8 1014.4 - 0.0

Other Formats:

Comma delimited format used in spreadsheet applications
http://www.bom.gov.au/fwo/IDS60801/IDS60801.94476.axf

JavaScript Object Notation format (JSON) in row-major order
http://www.bom.gov.au/fwo/IDS60801/IDS60801.94476.json